Time,TemperatureF,DewpointF,PressureIn,WindDirection,WindDirectionDegrees,WindSpeedMPH,WindSpeedGustMPH,Humidity,HourlyPrecipIn,Conditions,Clouds,dailyrainin,SoftwareType,DateUTC
2013-01-29 00:04:00,48.2,47.9,30.32,NW,308,3.5,5.8,99,0.00,FEW,,0.00,WeatherDisplay:10.37,2013-01-29 08:04:00,
2013-01-29 00:09:00,48.3,48.0,30.32,NW,316,2.8,5.0,99,0.00,FEW,,0.00,WeatherDisplay:10.37,2013-01-29 08:09:00,
2013-01-29 00:14:00,48.7,48.4,30.32,NNW,336,3.7,6.9,99,0.00,FEW,,0.00,WeatherDisplay:10.37,2013-01-29 08:14:00,
2013-01-29 00:19:00,48.4,47.9,30.32,WNW,301,3.1,5.8,98,0.00,BKN,,0.00,WeatherDisplay:10.37,2013-01-29 08:19:00,
2013-01-29 00:24:00,48.4,47.9,30.32,NNW,330,2.8,6.9,98,0.00,BKN,,0.00,WeatherDisplay:10.37,2013-01-29 08:24:00,
2013-01-29 00:29:00,48.3,47.8,30.32,NW,323,3.9,5.8,98,0.00,BKN,,0.00,WeatherDisplay:10.37,2013-01-29 08:29:00,
2013-01-29 00:34:00,48.2,47.7,30.33,NW,318,3.7,6.9,98,0.00,BKN,,0.00,WeatherDisplay:10.37,2013-01-29 08:34:00,
2013-01-29 00:39:00,48.2,47.7,30.33,WNW,299,2.5,5.8,98,0.00,BKN,,0.00,WeatherDisplay:10.37,2013-01-29 08:39:00,
2013-01-29 00:44:00,48.2,47.7,30.32,WNW,284,2.1,4.6,98,0.00,BKN,,0.00,WeatherDisplay:10.37,2013-01-29 08:44:00,
2013-01-29 00:49:00,48.5,48.0,30.33,WNW,298,3.6,5.8,98,0.00,BKN,,0.00,WeatherDisplay:10.37,2013-01-29 08:49:00,
2013-01-29 00:54:00,48.6,48.1,30.33,WNW,282,2.5,4.8,98,0.00,BKN,,0.00,WeatherDisplay:10.37,2013-01-29 08:54:00,
2013-01-29 00:59:00,48.5,48.0,30.33,North,10,3.8,8.1,98,0.00,BKN,,0.00,WeatherDisplay:10.37,2013-01-29 08:59:00,
2013-01-29 01:04:00,48.4,48.1,30.33,West,267,2.5,4.6,99,0.00,BKN,,0.00,WeatherDisplay:10.37,2013-01-29 09:04:00,
2013-01-29 01:09:00,48.2,47.9,30.33,NNW,343,3.8,5.8,99,0.00,BKN,,0.00,WeatherDisplay:10.37,2013-01-29 09:09:00,
2013-01-29 01:14:00,48.1,47.8,30.33,NW,312,3.1,5.8,99,0.00,BKN,,0.00,WeatherDisplay:10.37,2013-01-29 09:14:00,
2013-01-29 01:19:00,48.1,47.8,30.33,NNW,330,2.4,4.6,99,0.00,BKN,,0.00,WeatherDisplay:10.37,2013-01-29 09:19:00,
2013-01-29 01:24:00,48.0,47.7,30.33,WNW,289,1.4,3.5,99,0.00,BKN,,0.00,WeatherDisplay:10.37,2013-01-29 09:24:00,
2013-01-29 01:29:00,48.0,47.7,30.33,NW,322,1.8,4.6,99,0.00,BKN,,0.00,WeatherDisplay:10.37,2013-01-29 09:29:00,
2013-01-29 01:34:00,48.0,47.7,30.33,NW,306,2.6,5.8,99,0.00,BKN,,0.00,WeatherDisplay:10.37,2013-01-29 09:34:00,
2013-01-29 01:39:00,48.1,47.8,30.33,WNW,294,3.2,5.8,99,0.00,BKN,,0.00,WeatherDisplay:10.37,2013-01-29 09:39:00,
2013-01-29 01:44:00,48.0,47.7,30.33,WNW,299,3.5,6.9,99,0.00,BKN,,0.00,WeatherDisplay:10.37,2013-01-29 09:44:00,
2013-01-29 01:49:00,48.1,47.8,30.33,WNW,291,3.1,6.9,99,0.00,BKN,,0.00,WeatherDisplay:10.37,2013-01-29 09:49:00,
2013-01-29 01:54:00,48.0,47.7,30.34,NW,320,1.6,4.6,99,0.00,BKN,,0.00,WeatherDisplay:10.37,2013-01-29 09:54:00,
2013-01-29 01:59:00,47.7,47.4,30.34,West,277,2.1,3.5,99,0.00,BKN,,0.00,WeatherDisplay:10.37,2013-01-29 09:59:00,
2013-01-29 02:04:00,47.5,47.2,30.34,WNW,299,2.6,4.5,99,0.00,BKN,,0.00,WeatherDisplay:10.37,2013-01-29 10:04:00,
2013-01-29 02:09:00,47.5,47.2,30.34,West,272,3.3,5.8,99,0.00,BKN,,0.00,WeatherDisplay:10.37,2013-01-29 10:09:00,
2013-01-29 02:14:00,47.5,47.2,30.34,NW,305,3.8,9.2,99,0.00,BKN,,0.00,WeatherDisplay:10.37,2013-01-29 10:14:00,
2013-01-29 02:19:00,47.5,47.0,30.34,WNW,291,4.0,8.1,98,0.00,CLR,,0.00,WeatherDisplay:10.37,2013-01-29 10:19:00,
2013-01-29 02:24:00,47.7,47.2,30.34,NW,308,4.8,6.9,98,0.00,CLR,,0.00,WeatherDisplay:10.37,2013-01-29 10:24:00,
2013-01-29 02:29:00,47.6,47.1,30.34,SSE,160,1.8,5.8,98,0.00,CLR,,0.00,WeatherDisplay:10.37,2013-01-29 10:29:00,
2013-01-29 02:34:00,47.7,47.2,30.34,WNW,295,4.0,5.8,98,0.00,CLR,,0.00,WeatherDisplay:10.37,2013-01-29 10:34:00,
2013-01-29 02:39:00,47.4,46.9,30.34,WNW,295,2.9,5.8,98,0.00,CLR,,0.00,WeatherDisplay:10.37,2013-01-29 10:39:00,
2013-01-29 02:44:00,47.3,46.8,30.34,WSW,254,4.2,6.9,98,0.00,CLR,,0.00,WeatherDisplay:10.37,2013-01-29 10:44:00,
2013-01-29 02:49:00,47.3,46.8,30.34,North,352,4.1,8.1,98,0.00,CLR,,0.00,WeatherDisplay:10.37,2013-01-29 10:49:00,
2013-01-29 02:54:00,47.4,46.9,30.34,West,271,4.7,7.0,98,0.00,CLR,,0.00,WeatherDisplay:10.37,2013-01-29 10:54:00,
2013-01-29 02:59:00,47.2,46.7,30.33,NW,309,4.3,6.9,98,0.00,CLR,,0.00,WeatherDisplay:10.37,2013-01-29 10:59:00,
2013-01-29 03:04:00,46.9,46.4,30.34,WNW,282,3.5,8.1,98,0.00,CLR,,0.00,WeatherDisplay:10.37,2013-01-29 11:04:00,
2013-01-29 03:09:00,47.0,46.5,30.34,West,261,3.3,9.2,98,0.00,CLR,,0.00,WeatherDisplay:10.37,2013-01-29 11:09:00,
2013-01-29 03:14:00,47.1,46.6,30.34,WNW,296,5.2,6.9,98,0.00,CLR,,0.00,WeatherDisplay:10.37,2013-01-29 11:14:00,
2013-01-29 03:19:00,46.8,46.3,30.34,West,280,4.7,6.9,98,0.00,CLR,,0.00,WeatherDisplay:10.37,2013-01-29 11:19:00,
2013-01-29 03:24:00,46.8,46.3,30.34,NW,319,5.7,8.1,98,0.00,CLR,,0.00,WeatherDisplay:10.37,2013-01-29 11:24:00,
2013-01-29 03:29:00,46.8,46.3,30.34,NW,305,3.8,8.1,98,0.00,CLR,,0.00,WeatherDisplay:10.37,2013-01-29 11:29:00,
2013-01-29 03:35:00,46.8,46.3,30.34,WNW,298,4.3,9.2,98,0.00,CLR,,0.00,WeatherDisplay:10.37,2013-01-29 11:35:00,
2013-01-29 03:40:00,46.8,46.2,30.34,NW,311,3.0,10.0,98,0.00,CLR,,0.00,WeatherDisplay:10.37,2013-01-29 11:40:00,
2013-01-29 03:45:00,46.9,46.4,30.34,NW,320,4.7,6.9,98,0.00,CLR,,0.00,WeatherDisplay:10.37,2013-01-29 11:45:00,
2013-01-29 03:50:00,47.0,46.5,30.34,NW,308,3.9,5.8,98,0.00,CLR,,0.00,WeatherDisplay:10.37,2013-01-29 11:50:00,
2013-01-29 03:55:00,46.8,46.3,30.34,West,274,4.0,5.8,98,0.00,CLR,,0.00,WeatherDisplay:10.37,2013-01-29 11:55:00,
2013-01-29 04:00:00,46.8,46.3,30.34,WNW,285,3.9,6.9,98,0.00,CLR,,0.00,WeatherDisplay:10.37,2013-01-29 12:00:00,
2013-01-29 04:05:00,46.8,46.5,30.34,NW,320,3.2,4.6,99,0.00,CLR,,0.00,WeatherDisplay:10.37,2013-01-29 12:05:00,
2013-01-29 04:10:00,46.5,46.2,30.34,West,270,2.6,3.5,99,0.00,CLR,,0.00,WeatherDisplay:10.37,2013-01-29 12:10:00,
2013-01-29 04:15:00,46.4,46.1,30.34,WNW,302,3.9,4.6,99,0.00,CLR,,0.00,WeatherDisplay:10.37,2013-01-29 12:15:00,
2013-01-29 04:20:00,46.7,46.4,30.35,NW,308,3.5,6.9,99,0.00,CLR,,0.00,WeatherDisplay:10.37,2013-01-29 12:20:00,
2013-01-29 04:25:00,46.5,46.2,30.36,NW,306,5.2,8.4,99,0.00,CLR,,0.00,WeatherDisplay:10.37,2013-01-29 12:25:00,
2013-01-29 04:30:00,46.6,46.3,30.36,NW,326,4.1,5.8,99,0.00,CLR,,0.00,WeatherDisplay:10.37,2013-01-29 12:30:00,
2013-01-29 04:35:00,46.6,46.3,30.36,West,278,4.7,6.9,99,0.00,CLR,,0.00,WeatherDisplay:10.37,2013-01-29 12:35:00,
2013-01-29 04:40:00,46.4,46.1,30.36,NNW,328,3.6,5.8,99,0.00,CLR,,0.00,WeatherDisplay:10.37,2013-01-29 12:40:00,
2013-01-29 04:45:00,46.3,46.0,30.36,NNW,329,4.9,8.1,99,0.00,CLR,,0.00,WeatherDisplay:10.37,2013-01-29 12:45:00,
2013-01-29 04:50:00,46.2,45.9,30.36,WNW,302,3.4,4.6,99,0.00,CLR,,0.00,WeatherDisplay:10.37,2013-01-29 12:50:00,
2013-01-29 04:55:00,46.3,46.0,30.36,NW,304,2.7,4.6,99,0.00,CLR,,0.00,WeatherDisplay:10.37,2013-01-29 12:55:00,
2013-01-29 05:00:00,46.2,45.9,30.36,West,274,4.2,8.1,99,0.00,CLR,,0.00,WeatherDisplay:10.37,2013-01-29 13:00:00,
2013-01-29 05:05:00,46.3,46.0,30.36,West,278,4.9,9.2,99,0.00,FEW,,0.00,WeatherDisplay:10.37,2013-01-29 13:05:00,
2013-01-29 05:10:00,46.2,45.9,30.36,NW,306,4.1,8.1,99,0.00,FEW,,0.00,WeatherDisplay:10.37,2013-01-29 13:10:00,
2013-01-29 05:15:00,46.1,45.8,30.35,WNW,282,5.5,9.2,99,0.00,FEW,,0.00,WeatherDisplay:10.37,2013-01-29 13:15:00,
2013-01-29 05:20:00,46.2,45.9,30.35,WNW,285,5.7,8.1,99,0.00,FEW,,0.00,WeatherDisplay:10.37,2013-01-29 13:20:00,
2013-01-29 05:25:00,46.0,45.7,30.35,NW,305,4.6,9.2,99,0.00,FEW,,0.00,WeatherDisplay:10.37,2013-01-29 13:25:00,
2013-01-29 05:30:00,46.1,45.8,30.35,NW,313,5.1,8.1,99,0.00,FEW,,0.00,WeatherDisplay:10.37,2013-01-29 13:30:00,
2013-01-29 05:35:00,46.1,45.8,30.34,WNW,288,6.3,9.2,99,0.00,FEW,,0.00,WeatherDisplay:10.37,2013-01-29 13:35:00,
2013-01-29 05:40:00,46.3,46.0,30.34,NW,315,4.9,8.1,99,0.00,FEW,,0.00,WeatherDisplay:10.37,2013-01-29 13:40:00,
2013-01-29 05:45:00,46.3,46.0,30.34,NNE,25,4.4,6.9,99,0.00,FEW,,0.00,WeatherDisplay:10.37,2013-01-29 13:45:00,
2013-01-29 05:50:00,46.4,46.1,30.34,NW,306,5.2,9.2,99,0.00,FEW,,0.00,WeatherDisplay:10.37,2013-01-29 13:50:00,
2013-01-29 05:55:00,46.2,45.9,30.34,West,278,4.8,8.1,99,0.00,FEW,,0.00,WeatherDisplay:10.37,2013-01-29 13:55:00,
2013-01-29 06:00:00,46.2,45.9,30.35,West,272,3.7,6.9,99,0.00,FEW,,0.00,WeatherDisplay:10.37,2013-01-29 14:00:00,
2013-01-29 06:05:00,45.9,45.6,30.34,North,3,4.3,6.9,99,0.00,FEW,,0.00,WeatherDisplay:10.37,2013-01-29 14:05:00,
2013-01-29 06:10:00,46.0,45.7,30.34,WNW,299,3.9,5.8,99,0.00,FEW,,0.00,WeatherDisplay:10.37,2013-01-29 14:10:00,
2013-01-29 06:15:00,45.9,45.6,30.35,WNW,287,4.1,5.8,99,0.00,FEW,,0.00,WeatherDisplay:10.37,2013-01-29 14:15:00,
2013-01-29 06:20:00,46.2,45.7,30.35,NNW,332,3.4,6.9,98,0.00,CLR,,0.00,WeatherDisplay:10.37,2013-01-29 14:20:00,
2013-01-29 06:25:00,46.0,45.5,30.35,NW,320,3.7,7.3,98,0.00,CLR,,0.00,WeatherDisplay:10.37,2013-01-29 14:25:00,
2013-01-29 06:30:00,46.3,45.8,30.34,West,261,3.4,5.8,98,0.00,CLR,,0.00,WeatherDisplay:10.37,2013-01-29 14:30:00,
2013-01-29 06:35:00,46.3,45.8,30.34,WNW,288,3.2,6.9,98,0.00,CLR,,0.00,WeatherDisplay:10.37,2013-01-29 14:35:00,
2013-01-29 06:40:00,46.1,45.6,30.34,WSW,256,2.1,6.9,98,0.00,CLR,,0.00,WeatherDisplay:10.37,2013-01-29 14:40:00,
2013-01-29 06:45:00,46.0,45.5,30.35,NW,315,2.7,5.8,98,0.00,CLR,,0.00,WeatherDisplay:10.37,2013-01-29 14:45:00,
2013-01-29 06:50:00,46.1,45.6,30.35,ENE,75,2.6,4.3,98,0.00,CLR,,0.00,WeatherDisplay:10.37,2013-01-29 14:50:00,
2013-01-29 06:55:00,45.9,45.4,30.35,East,96,0.1,3.5,98,0.00,CLR,,0.00,WeatherDisplay:10.37,2013-01-29 14:55:00,
2013-01-29 07:00:00,45.7,45.2,30.36,East,96,0.0,0.0,98,0.00,CLR,,0.00,WeatherDisplay:10.37,2013-01-29 15:00:00,
2013-01-29 07:05:00,44.9,44.4,30.36,West,260,1.6,2.3,98,0.00,CLR,,0.00,WeatherDisplay:10.37,2013-01-29 15:05:00,
2013-01-29 07:10:00,45.1,44.6,30.36,SW,224,0.0,0.0,98,0.00,CLR,,0.00,WeatherDisplay:10.37,2013-01-29 15:10:00,
2013-01-29 07:15:00,44.9,44.4,30.36,SW,224,0.0,0.0,98,0.00,CLR,,0.00,WeatherDisplay:10.37,2013-01-29 15:15:00,
2013-01-29 07:20:00,45.1,44.6,30.36,ENE,68,0.3,1.1,98,0.00,CLR,,0.00,WeatherDisplay:10.37,2013-01-29 15:20:00,
2013-01-29 07:25:00,44.4,43.9,30.37,ENE,68,0.0,0.0,98,0.00,CLR,,0.00,WeatherDisplay:10.37,2013-01-29 15:25:00,
2013-01-29 07:30:00,44.1,43.6,30.37,ENE,68,0.0,0.0,98,0.00,CLR,,0.00,WeatherDisplay:10.37,2013-01-29 15:30:00,
2013-01-29 07:35:00,44.5,44.0,30.37,WSW,250,0.0,2.3,98,0.00,CLR,,0.00,WeatherDisplay:10.37,2013-01-29 15:35:00,
2013-01-29 07:40:00,45.1,44.6,30.37,SW,216,0.0,0.0,98,0.00,CLR,,0.00,WeatherDisplay:10.37,2013-01-29 15:40:00,
2013-01-29 07:45:00,44.4,43.9,30.37,SSW,199,1.7,2.3,98,0.00,CLR,,0.00,WeatherDisplay:10.37,2013-01-29 15:45:00,
2013-01-29 07:50:00,44.9,44.4,30.37,West,263,0.5,0.0,98,0.00,CLR,,0.00,WeatherDisplay:10.37,2013-01-29 15:50:00,
2013-01-29 07:55:00,45.0,44.5,30.38,SW,226,1.5,2.3,98,0.00,CLR,,0.00,WeatherDisplay:10.37,2013-01-29 15:55:00,
2013-01-29 08:00:00,45.7,45.2,30.38,WSW,257,2.1,3.5,98,0.00,CLR,,0.00,WeatherDisplay:10.37,2013-01-29 16:00:00,
2013-01-29 08:05:00,45.8,45.8,30.38,SW,224,0.0,0.0,100,0.00,CLR,,0.00,WeatherDisplay:10.37,2013-01-29 16:05:00,
2013-01-29 08:10:00,45.7,45.7,30.38,SW,232,0.8,2.3,100,0.00,CLR,,0.00,WeatherDisplay:10.37,2013-01-29 16:10:00,
2013-01-29 08:15:00,45.7,45.7,30.38,WSW,256,1.6,2.3,100,0.00,CLR,,0.00,WeatherDisplay:10.37,2013-01-29 16:15:00,
2013-01-29 08:20:00,46.0,46.0,30.38,WSW,257,1.3,3.7,100,0.00,CLR,,0.00,WeatherDisplay:10.37,2013-01-29 16:20:00,
2013-01-29 08:25:00,46.4,46.4,30.38,West,278,1.8,2.8,100,0.00,CLR,,0.00,WeatherDisplay:10.37,2013-01-29 16:25:00,
2013-01-29 08:30:00,46.7,46.7,30.38,West,263,1.4,2.3,100,0.00,CLR,,0.00,WeatherDisplay:10.37,2013-01-29 16:30:00,
2013-01-29 08:35:00,46.9,46.9,30.38,WSW,244,2.3,3.5,100,0.00,CLR,,0.00,WeatherDisplay:10.37,2013-01-29 16:35:00,
2013-01-29 08:40:00,47.2,47.2,30.38,West,261,2.7,4.6,100,0.00,CLR,,0.00,WeatherDisplay:10.37,2013-01-29 16:40:00,
2013-01-29 08:45:00,47.4,47.4,30.38,West,263,0.6,3.5,100,0.00,CLR,,0.00,WeatherDisplay:10.37,2013-01-29 16:45:00,
2013-01-29 08:50:00,47.5,47.5,30.38,SW,234,2.7,3.5,100,0.00,CLR,,0.00,WeatherDisplay:10.37,2013-01-29 16:50:00,
2013-01-29 08:55:00,47.6,47.6,30.38,West,265,2.6,4.6,100,0.00,CLR,,0.00,WeatherDisplay:10.37,2013-01-29 16:55:00,
2013-01-29 09:00:00,47.8,47.8,30.39,WNW,296,3.0,5.8,100,0.00,CLR,,0.00,WeatherDisplay:10.37,2013-01-29 17:00:00,
2013-01-29 09:05:00,48.2,48.2,30.39,West,275,2.9,4.7,100,0.00,CLR,,0.00,WeatherDisplay:10.37,2013-01-29 17:05:00,
2013-01-29 09:10:00,48.7,48.7,30.39,West,277,3.7,5.8,100,0.00,CLR,,0.00,WeatherDisplay:10.37,2013-01-29 17:10:00,
2013-01-29 09:15:00,49.1,49.1,30.39,West,278,4.0,8.1,100,0.00,CLR,,0.00,WeatherDisplay:10.37,2013-01-29 17:15:00,
2013-01-29 09:20:00,49.5,49.2,30.39,WSW,258,3.0,4.6,99,0.00,CLR,,0.00,WeatherDisplay:10.37,2013-01-29 17:20:00,
2013-01-29 09:25:00,50.0,49.7,30.39,West,265,3.3,4.6,99,0.00,CLR,,0.00,WeatherDisplay:10.37,2013-01-29 17:25:00,
2013-01-29 09:30:00,50.4,50.1,30.39,West,264,4.0,7.3,99,0.00,CLR,,0.00,WeatherDisplay:10.37,2013-01-29 17:30:00,
2013-01-29 09:35:00,50.8,50.5,30.39,WNW,295,4.4,5.8,99,0.00,CLR,,0.00,WeatherDisplay:10.37,2013-01-29 17:35:00,
2013-01-29 09:40:00,51.2,50.9,30.39,West,271,3.5,6.9,99,0.00,CLR,,0.00,WeatherDisplay:10.37,2013-01-29 17:40:00,
2013-01-29 09:45:00,51.7,51.4,30.39,WNW,285,4.0,8.1,99,0.00,CLR,,0.00,WeatherDisplay:10.37,2013-01-29 17:45:00,
2013-01-29 09:50:00,52.3,52.0,30.39,WNW,295,0.7,3.5,99,0.00,CLR,,0.00,WeatherDisplay:10.37,2013-01-29 17:50:00,
2013-01-29 09:55:00,52.9,52.6,30.40,West,278,3.4,6.5,99,0.00,CLR,,0.00,WeatherDisplay:10.37,2013-01-29 17:55:00,
2013-01-29 10:00:00,53.0,52.7,30.40,WNW,282,3.4,4.6,99,0.00,CLR,,0.00,WeatherDisplay:10.37,2013-01-29 18:00:00,
2013-01-29 10:05:00,53.5,49.4,30.40,NW,311,2.8,6.5,86,0.00,CLR,,0.00,WeatherDisplay:10.37,2013-01-29 18:05:00,
2013-01-29 10:10:00,53.9,49.8,30.40,WSW,254,4.0,8.1,86,0.00,CLR,,0.00,WeatherDisplay:10.37,2013-01-29 18:10:00,
2013-01-29 10:15:00,54.9,50.8,30.40,NW,315,2.9,5.8,86,0.00,CLR,,0.00,WeatherDisplay:10.37,2013-01-29 18:15:00,
2013-01-29 10:20:00,55.3,51.2,30.40,West,268,3.7,4.6,86,0.00,CLR,,0.00,WeatherDisplay:10.37,2013-01-29 18:20:00,
2013-01-29 10:25:00,55.7,51.6,30.40,WNW,282,2.6,4.6,86,0.00,CLR,,0.00,WeatherDisplay:10.37,2013-01-29 18:25:00,
2013-01-29 10:30:00,55.9,51.8,30.40,SW,223,0.0,0.0,86,0.00,CLR,,0.00,WeatherDisplay:10.37,2013-01-29 18:30:00,
2013-01-29 10:35:00,55.8,51.7,30.40,WSW,247,1.9,3.5,86,0.00,CLR,,0.00,WeatherDisplay:10.37,2013-01-29 18:35:00,
2013-01-29 10:40:00,56.4,52.3,30.40,West,265,2.3,4.0,86,0.00,CLR,,0.00,WeatherDisplay:10.37,2013-01-29 18:40:00,
2013-01-29 10:45:00,56.7,52.6,30.40,West,268,3.6,5.8,86,0.00,CLR,,0.00,WeatherDisplay:10.37,2013-01-29 18:45:00,
2013-01-29 10:50:00,57.0,52.9,30.40,West,271,2.1,2.3,86,0.00,CLR,,0.00,WeatherDisplay:10.37,2013-01-29 18:50:00,
2013-01-29 10:55:00,57.5,53.3,30.40,WSW,256,2.4,3.7,86,0.00,CLR,,0.00,WeatherDisplay:10.37,2013-01-29 18:55:00,
2013-01-29 11:00:00,58.3,54.1,30.40,West,270,1.8,5.8,86,0.00,CLR,,0.00,WeatherDisplay:10.37,2013-01-29 19:00:00,
2013-01-29 11:05:00,58.5,54.3,30.40,West,280,1.7,4.6,86,0.00,CLR,,0.00,WeatherDisplay:10.37,2013-01-29 19:05:00,
2013-01-29 11:10:00,59.3,55.1,30.40,WNW,285,2.9,4.6,86,0.00,CLR,,0.00,WeatherDisplay:10.37,2013-01-29 19:10:00,
2013-01-29 11:15:00,59.5,55.3,30.40,WSW,246,2.6,4.6,86,0.00,CLR,,0.00,WeatherDisplay:10.37,2013-01-29 19:15:00,
2013-01-29 11:20:00,60.2,46.3,30.40,SW,232,4.9,5.8,60,0.00,CLR,,0.00,WeatherDisplay:10.37,2013-01-29 19:20:00,
2013-01-29 11:25:00,60.0,46.1,30.40,SW,215,3.1,4.6,60,0.00,CLR,,0.00,WeatherDisplay:10.37,2013-01-29 19:25:00,
2013-01-29 11:30:00,60.3,46.4,30.40,SW,220,3.3,5.8,60,0.00,CLR,,0.00,WeatherDisplay:10.37,2013-01-29 19:30:00,
2013-01-29 11:35:00,59.3,45.4,30.40,SSW,192,3.7,5.8,60,0.00,CLR,,0.00,WeatherDisplay:10.37,2013-01-29 19:35:00,
2013-01-29 11:40:00,59.1,45.2,30.40,South,169,5.0,6.9,60,0.00,CLR,,0.00,WeatherDisplay:10.37,2013-01-29 19:40:00,
2013-01-29 11:45:00,59.5,45.6,30.40,SE,134,4.9,6.6,60,0.00,CLR,,0.00,WeatherDisplay:10.37,2013-01-29 19:45:00,
2013-01-29 11:50:00,60.3,46.4,30.40,South,189,4.2,5.8,60,0.00,CLR,,0.00,WeatherDisplay:10.37,2013-01-29 19:50:00,
2013-01-29 11:55:00,59.8,45.9,30.39,SSW,193,2.3,4.6,60,0.00,CLR,,0.00,WeatherDisplay:10.37,2013-01-29 19:55:00,
2013-01-29 12:00:00,59.7,45.8,30.39,ESE,107,4.3,6.9,60,0.00,CLR,,0.00,WeatherDisplay:10.37,2013-01-29 20:00:00,
2013-01-29 12:02:00,59.9,46.0,30.38,East,99,4.2,5.8,60,0.00,CLR,,0.00,WeatherDisplay:10.37,2013-01-29 20:02:00,
2013-01-29 12:07:00,59.9,46.0,30.38,ESE,106,3.2,4.6,60,0.00,CLR,,0.00,WeatherDisplay:10.37,2013-01-29 20:07:00,
2013-01-29 12:12:00,60.6,46.6,30.38,South,185,2.4,3.5,60,0.00,CLR,,0.00,WeatherDisplay:10.37,2013-01-29 20:12:00,
2013-01-29 12:17:00,60.4,46.4,30.38,SSE,167,0.8,2.3,60,0.00,CLR,,0.00,WeatherDisplay:10.37,2013-01-29 20:17:00,
2013-01-29 12:22:00,61.2,47.2,30.38,SSW,195,2.3,4.6,60,0.00,CLR,,0.00,WeatherDisplay:10.37,2013-01-29 20:22:00,
2013-01-29 12:27:00,61.1,47.1,30.37,SSE,168,3.0,5.8,60,0.00,CLR,,0.00,WeatherDisplay:10.37,2013-01-29 20:27:00,
2013-01-29 12:32:00,60.5,46.1,30.37,SSW,196,1.7,3.5,59,0.00,CLR,,0.00,WeatherDisplay:10.37,2013-01-29 20:32:00,
2013-01-29 12:37:00,61.6,47.1,30.37,SSE,150,2.1,4.6,59,0.00,CLR,,0.00,WeatherDisplay:10.37,2013-01-29 20:37:00,
2013-01-29 12:42:00,61.9,47.4,30.37,SE,133,2.9,4.6,59,0.00,CLR,,0.00,WeatherDisplay:10.37,2013-01-29 20:42:00,
2013-01-29 12:47:00,62.6,48.1,30.36,WSW,256,1.5,3.5,59,0.00,CLR,,0.00,WeatherDisplay:10.37,2013-01-29 20:47:00,
2013-01-29 12:52:00,63.2,48.6,30.36,WSW,247,2.1,4.6,59,0.00,CLR,,0.00,WeatherDisplay:10.37,2013-01-29 20:52:00,
2013-01-29 12:57:00,63.0,48.4,30.35,WNW,292,2.2,3.5,59,0.00,CLR,,0.00,WeatherDisplay:10.37,2013-01-29 20:57:00,
2013-01-29 13:02:00,62.7,48.2,30.35,West,268,3.6,4.6,59,0.00,CLR,,0.00,WeatherDisplay:10.37,2013-01-29 21:02:00,
2013-01-29 13:07:00,62.9,48.3,30.36,ESE,103,2.5,3.5,59,0.00,CLR,,0.00,WeatherDisplay:10.37,2013-01-29 21:07:00,
2013-01-29 13:12:00,63.4,48.8,30.35,WNW,282,1.0,3.5,59,0.00,CLR,,0.00,WeatherDisplay:10.37,2013-01-29 21:12:00,
2013-01-29 13:17:00,63.7,43.6,30.35,WSW,254,2.3,4.6,48,0.00,CLR,,0.00,WeatherDisplay:10.37,2013-01-29 21:17:00,
2013-01-29 13:22:00,63.6,43.5,30.34,SW,223,3.1,5.8,48,0.00,CLR,,0.00,WeatherDisplay:10.37,2013-01-29 21:22:00,
2013-01-29 13:27:00,63.4,43.4,30.34,West,280,4.1,6.9,48,0.00,CLR,,0.00,WeatherDisplay:10.37,2013-01-29 21:27:00,
2013-01-29 13:32:00,63.6,43.5,30.34,WSW,237,4.4,5.8,48,0.00,CLR,,0.00,WeatherDisplay:10.37,2013-01-29 21:32:00,
2013-01-29 13:37:00,63.2,43.2,30.34,SSW,208,3.5,5.8,48,0.00,CLR,,0.00,WeatherDisplay:10.37,2013-01-29 21:37:00,
2013-01-29 13:42:00,63.3,43.3,30.34,West,271,4.1,5.8,48,0.00,CLR,,0.00,WeatherDisplay:10.37,2013-01-29 21:42:00,
2013-01-29 13:47:00,63.4,43.4,30.33,SW,234,1.4,2.3,48,0.00,CLR,,0.00,WeatherDisplay:10.37,2013-01-29 21:47:00,
2013-01-29 13:52:00,62.9,42.9,30.33,WNW,289,3.7,4.6,48,0.00,CLR,,0.00,WeatherDisplay:10.37,2013-01-29 21:52:00,
2013-01-29 13:57:00,63.0,43.0,30.32,WSW,239,1.2,5.0,48,0.00,CLR,,0.00,WeatherDisplay:10.37,2013-01-29 21:57:00,
2013-01-29 14:02:00,62.6,42.1,30.32,SW,220,5.2,8.1,47,0.00,CLR,,0.00,WeatherDisplay:10.37,2013-01-29 22:02:00,
2013-01-29 14:07:00,62.7,42.2,30.33,SSW,202,4.2,6.9,47,0.00,CLR,,0.00,WeatherDisplay:10.37,2013-01-29 22:07:00,
2013-01-29 14:12:00,62.8,42.3,30.32,SW,217,3.3,5.8,47,0.00,CLR,,0.00,WeatherDisplay:10.37,2013-01-29 22:12:00,
2013-01-29 14:17:00,63.5,42.9,30.32,West,263,0.1,1.1,47,0.00,CLR,,0.00,WeatherDisplay:10.37,2013-01-29 22:17:00,
2013-01-29 14:22:00,63.2,42.6,30.32,WSW,258,0.9,2.3,47,0.00,CLR,,0.00,WeatherDisplay:10.37,2013-01-29 22:22:00,
2013-01-29 14:27:00,63.3,42.7,30.32,WSW,241,3.1,7.1,47,0.00,CLR,,0.00,WeatherDisplay:10.37,2013-01-29 22:27:00,
2013-01-29 14:32:00,63.3,42.7,30.32,SW,234,3.0,4.8,47,0.00,CLR,,0.00,WeatherDisplay:10.37,2013-01-29 22:32:00,
2013-01-29 14:37:00,63.0,42.4,30.32,WSW,250,5.0,9.2,47,0.00,CLR,,0.00,WeatherDisplay:10.37,2013-01-29 22:37:00,
2013-01-29 14:42:00,62.8,42.3,30.32,WSW,248,5.4,8.1,47,0.00,CLR,,0.00,WeatherDisplay:10.37,2013-01-29 22:42:00,
2013-01-29 14:47:00,62.8,42.3,30.32,SW,226,3.1,6.9,47,0.00,CLR,,0.00,WeatherDisplay:10.37,2013-01-29 22:47:00,
2013-01-29 14:52:00,63.2,42.6,30.32,SSW,196,2.2,5.7,47,0.00,CLR,,0.00,WeatherDisplay:10.37,2013-01-29 22:52:00,
2013-01-29 14:57:00,63.6,43.0,30.32,South,178,4.1,8.1,47,0.00,CLR,,0.00,WeatherDisplay:10.37,2013-01-29 22:57:00,
2013-01-29 15:02:00,63.4,41.7,30.32,WSW,248,4.3,6.9,45,0.00,CLR,,0.00,WeatherDisplay:10.37,2013-01-29 23:02:00,
2013-01-29 15:07:00,63.3,41.6,30.32,SSE,167,2.9,6.6,45,0.00,CLR,,0.00,WeatherDisplay:10.37,2013-01-29 23:07:00,
2013-01-29 15:12:00,62.6,40.9,30.31,SW,216,5.0,6.9,45,0.00,CLR,,0.00,WeatherDisplay:10.37,2013-01-29 23:12:00,
2013-01-29 15:17:00,62.7,41.0,30.31,WSW,241,6.2,9.2,45,0.00,CLR,,0.00,WeatherDisplay:10.37,2013-01-29 23:17:00,
2013-01-29 15:22:00,62.2,40.6,30.31,WSW,244,6.7,9.2,45,0.00,CLR,,0.00,WeatherDisplay:10.37,2013-01-29 23:22:00,
2013-01-29 15:27:00,62.9,41.2,30.31,WSW,251,5.2,6.9,45,0.00,CLR,,0.00,WeatherDisplay:10.37,2013-01-29 23:27:00,
2013-01-29 15:32:00,63.0,41.3,30.31,SW,222,3.6,5.8,45,0.00,CLR,,0.00,WeatherDisplay:10.37,2013-01-29 23:32:00,
2013-01-29 15:37:00,62.1,40.5,30.31,SW,215,5.7,8.1,45,0.00,CLR,,0.00,WeatherDisplay:10.37,2013-01-29 23:37:00,
2013-01-29 15:42:00,62.3,40.7,30.30,WNW,295,4.1,5.8,45,0.00,CLR,,0.00,WeatherDisplay:10.37,2013-01-29 23:42:00,
2013-01-29 15:47:00,62.4,40.8,30.30,WSW,253,4.3,5.8,45,0.00,CLR,,0.00,WeatherDisplay:10.37,2013-01-29 23:47:00,
2013-01-29 15:52:00,62.3,40.7,30.30,WSW,243,4.2,5.8,45,0.00,CLR,,0.00,WeatherDisplay:10.37,2013-01-29 23:52:00,
2013-01-29 15:57:00,62.1,40.5,30.30,WSW,251,2.7,4.6,45,0.00,CLR,,0.00,WeatherDisplay:10.37,2013-01-29 23:57:00,
2013-01-29 16:02:00,61.8,41.9,30.30,WSW,244,0.1,1.1,48,0.00,CLR,,0.00,WeatherDisplay:10.37,2013-01-30 00:02:00,
2013-01-29 16:07:00,61.8,41.9,30.30,SW,226,1.6,3.0,48,0.00,CLR,,0.00,WeatherDisplay:10.37,2013-01-30 00:07:00,
2013-01-29 16:12:00,62.1,42.2,30.30,SSW,205,1.8,4.6,48,0.00,CLR,,0.00,WeatherDisplay:10.37,2013-01-30 00:12:00,
2013-01-29 16:17:00,61.9,42.0,30.30,WSW,237,2.8,5.8,48,0.00,CLR,,0.00,WeatherDisplay:10.37,2013-01-30 00:17:00,
2013-01-29 16:22:00,61.6,41.7,30.30,SW,226,3.0,5.8,48,0.00,CLR,,0.00,WeatherDisplay:10.37,2013-01-30 00:22:00,
2013-01-29 16:27:00,61.6,41.7,30.30,SW,230,2.7,6.9,48,0.00,CLR,,0.00,WeatherDisplay:10.37,2013-01-30 00:27:00,
2013-01-29 16:32:00,61.6,41.7,30.30,SSW,210,2.5,3.5,48,0.00,CLR,,0.00,WeatherDisplay:10.37,2013-01-30 00:32:00,
2013-01-29 16:37:00,61.4,41.5,30.30,WNW,291,3.2,5.8,48,0.00,CLR,,0.00,WeatherDisplay:10.37,2013-01-30 00:37:00,
2013-01-29 16:42:00,61.1,41.2,30.30,WNW,299,2.5,3.5,48,0.00,CLR,,0.00,WeatherDisplay:10.37,2013-01-30 00:42:00,
2013-01-29 16:47:00,60.7,40.9,30.30,West,281,2.7,5.2,48,0.00,CLR,,0.00,WeatherDisplay:10.37,2013-01-30 00:47:00,
2013-01-29 16:52:00,60.5,40.7,30.30,WNW,285,2.9,6.9,48,0.00,CLR,,0.00,WeatherDisplay:10.37,2013-01-30 00:52:00,
2013-01-29 16:57:00,60.0,40.2,30.29,West,271,3.7,6.8,48,0.00,CLR,,0.00,WeatherDisplay:10.37,2013-01-30 00:57:00,
2013-01-29 17:02:00,60.0,40.2,30.30,West,264,3.1,4.6,48,0.00,CLR,,0.00,WeatherDisplay:10.37,2013-01-30 01:02:00,
2013-01-29 17:07:00,59.4,39.7,30.30,West,270,4.2,5.8,48,0.00,CLR,,0.00,WeatherDisplay:10.37,2013-01-30 01:07:00,
2013-01-29 17:12:00,59.1,39.4,30.30,West,274,1.7,3.5,48,0.00,CLR,,0.00,WeatherDisplay:10.37,2013-01-30 01:12:00,
2013-01-29 17:17:00,58.8,42.2,30.29,West,278,1.2,2.3,54,0.00,CLR,,0.00,WeatherDisplay:10.37,2013-01-30 01:17:00,
2013-01-29 17:22:00,58.1,41.5,30.29,WNW,294,1.7,2.3,54,0.00,CLR,,0.00,WeatherDisplay:10.37,2013-01-30 01:22:00,
2013-01-29 17:27:00,57.6,41.1,30.29,West,278,2.9,3.5,54,0.00,CLR,,0.00,WeatherDisplay:10.37,2013-01-30 01:27:00,
2013-01-29 17:32:00,57.6,41.1,30.29,West,270,0.0,1.1,54,0.00,CLR,,0.00,WeatherDisplay:10.37,2013-01-30 01:32:00,
2013-01-29 17:37:00,57.4,40.9,30.30,West,278,0.0,0.0,54,0.00,CLR,,0.00,WeatherDisplay:10.37,2013-01-30 01:37:00,
2013-01-29 17:42:00,56.5,40.0,30.30,WSW,248,0.0,0.0,54,0.00,CLR,,0.00,WeatherDisplay:10.37,2013-01-30 01:42:00,
2013-01-29 17:47:00,55.5,39.1,30.30,WSW,248,0.0,0.0,54,0.00,CLR,,0.00,WeatherDisplay:10.37,2013-01-30 01:47:00,
2013-01-29 17:52:00,55.2,38.8,30.30,WSW,248,0.0,0.0,54,0.00,CLR,,0.00,WeatherDisplay:10.37,2013-01-30 01:52:00,
2013-01-29 17:57:00,54.5,38.2,30.30,WSW,248,0.0,0.0,54,0.00,CLR,,0.00,WeatherDisplay:10.37,2013-01-30 01:57:00,
2013-01-29 18:02:00,54.6,51.7,30.30,WSW,248,0.0,0.0,90,0.00,CLR,,0.00,WeatherDisplay:10.37,2013-01-30 02:02:00,
2013-01-29 18:07:00,54.3,51.4,30.30,WNW,299,0.5,1.1,90,0.00,CLR,,0.00,WeatherDisplay:10.37,2013-01-30 02:07:00,
2013-01-29 18:12:00,54.2,51.3,30.30,WNW,291,1.3,2.3,90,0.00,CLR,,0.00,WeatherDisplay:10.37,2013-01-30 02:12:00,
2013-01-29 18:17:00,54.2,51.3,30.31,NW,308,0.4,2.7,90,0.00,CLR,,0.00,WeatherDisplay:10.37,2013-01-30 02:17:00,
2013-01-29 18:22:00,53.8,50.9,30.30,NW,311,0.9,1.1,90,0.00,CLR,,0.00,WeatherDisplay:10.37,2013-01-30 02:22:00,
2013-01-29 18:27:00,53.6,50.7,30.30,West,281,1.2,2.3,90,0.00,CLR,,0.00,WeatherDisplay:10.37,2013-01-30 02:27:00,
2013-01-29 18:32:00,53.5,50.6,30.31,SW,227,0.0,0.0,90,0.00,CLR,,0.00,WeatherDisplay:10.37,2013-01-30 02:32:00,
2013-01-29 18:37:00,53.0,50.1,30.31,WNW,284,0.1,1.1,90,0.00,CLR,,0.00,WeatherDisplay:10.37,2013-01-30 02:37:00,
2013-01-29 18:42:00,52.8,49.9,30.31,West,275,0.0,0.0,90,0.00,CLR,,0.00,WeatherDisplay:10.37,2013-01-30 02:42:00,
2013-01-29 18:47:00,53.0,50.1,30.31,West,275,0.0,0.0,90,0.00,CLR,,0.00,WeatherDisplay:10.37,2013-01-30 02:47:00,
2013-01-29 18:52:00,52.7,49.8,30.31,West,275,0.0,0.0,90,0.00,CLR,,0.00,WeatherDisplay:10.37,2013-01-30 02:52:00,
2013-01-29 18:57:00,52.6,49.8,30.31,West,275,0.0,0.0,90,0.00,CLR,,0.00,WeatherDisplay:10.37,2013-01-30 02:57:00,
2013-01-29 19:02:00,52.2,49.4,30.31,West,275,0.0,0.0,90,0.00,CLR,,0.00,WeatherDisplay:10.37,2013-01-30 03:02:00,
2013-01-29 19:07:00,51.4,48.6,30.31,West,275,0.0,0.0,90,0.00,CLR,,0.00,WeatherDisplay:10.37,2013-01-30 03:07:00,
2013-01-29 19:12:00,50.8,48.0,30.32,West,275,0.0,0.0,90,0.00,CLR,,0.00,WeatherDisplay:10.37,2013-01-30 03:12:00,
2013-01-29 19:17:00,50.6,48.1,30.32,West,275,0.0,0.0,91,0.00,CLR,,0.00,WeatherDisplay:10.37,2013-01-30 03:17:00,
2013-01-29 19:22:00,50.6,48.1,30.32,West,275,0.0,0.0,91,0.00,CLR,,0.00,WeatherDisplay:10.37,2013-01-30 03:22:00,
2013-01-29 19:27:00,50.0,47.5,30.32,West,275,0.0,0.0,91,0.00,CLR,,0.00,WeatherDisplay:10.37,2013-01-30 03:27:00,
2013-01-29 19:32:00,49.7,47.2,30.32,West,275,0.0,0.0,91,0.00,CLR,,0.00,WeatherDisplay:10.37,2013-01-30 03:32:00,
2013-01-29 19:37:00,49.8,47.3,30.32,West,275,0.0,0.0,91,0.00,CLR,,0.00,WeatherDisplay:10.37,2013-01-30 03:37:00,
2013-01-29 19:42:00,50.0,47.5,30.32,West,275,0.0,0.0,91,0.00,CLR,,0.00,WeatherDisplay:10.37,2013-01-30 03:42:00,
2013-01-29 19:47:00,50.0,47.5,30.32,West,275,0.0,0.0,91,0.00,CLR,,0.00,WeatherDisplay:10.37,2013-01-30 03:47:00,
2013-01-29 19:52:00,49.2,46.7,30.32,West,275,0.0,0.0,91,0.00,CLR,,0.00,WeatherDisplay:10.37,2013-01-30 03:52:00,
2013-01-29 19:57:00,49.0,46.5,30.32,West,275,0.0,0.0,91,0.00,CLR,,0.00,WeatherDisplay:10.37,2013-01-30 03:57:00,
2013-01-29 20:02:00,49.1,46.6,30.33,West,275,0.0,0.0,91,0.00,CLR,,0.00,WeatherDisplay:10.37,2013-01-30 04:02:00,
2013-01-29 20:07:00,49.0,46.5,30.33,West,275,0.0,0.0,91,0.00,CLR,,0.00,WeatherDisplay:10.37,2013-01-30 04:07:00,
2013-01-29 20:12:00,48.6,46.1,30.33,WNW,299,0.6,1.1,91,0.00,CLR,,0.00,WeatherDisplay:10.37,2013-01-30 04:12:00,
2013-01-29 20:17:00,48.7,46.2,30.33,WNW,288,1.2,3.5,91,0.00,CLR,,0.00,WeatherDisplay:10.37,2013-01-30 04:17:00,
2013-01-29 20:22:00,49.2,46.7,30.33,West,263,0.0,0.0,91,0.00,CLR,,0.00,WeatherDisplay:10.37,2013-01-30 04:22:00,
2013-01-29 20:27:00,48.6,46.1,30.32,WNW,287,0.8,1.4,91,0.00,CLR,,0.00,WeatherDisplay:10.37,2013-01-30 04:27:00,
2013-01-29 20:32:00,49.2,47.3,30.33,ENE,58,0.2,2.3,93,0.00,CLR,,0.00,WeatherDisplay:10.37,2013-01-30 04:32:00,
2013-01-29 20:37:00,48.8,46.9,30.33,ENE,58,0.0,0.0,93,0.00,CLR,,0.00,WeatherDisplay:10.37,2013-01-30 04:37:00,
2013-01-29 20:42:00,49.2,47.3,30.33,ENE,58,0.0,0.0,93,0.00,CLR,,0.00,WeatherDisplay:10.37,2013-01-30 04:42:00,
2013-01-29 20:47:00,49.2,47.3,30.34,ENE,58,0.0,0.0,93,0.00,CLR,,0.00,WeatherDisplay:10.37,2013-01-30 04:47:00,
2013-01-29 20:52:00,49.2,47.3,30.33,ENE,58,0.0,0.0,93,0.00,CLR,,0.00,WeatherDisplay:10.37,2013-01-30 04:52:00,
2013-01-29 20:57:00,49.2,47.3,30.34,North,350,0.0,0.0,93,0.00,CLR,,0.00,WeatherDisplay:10.37,2013-01-30 04:57:00,
2013-01-29 21:02:00,48.8,48.3,30.34,NNE,27,0.0,0.0,98,0.00,CLR,,0.00,WeatherDisplay:10.37,2013-01-30 05:02:00,
2013-01-29 21:03:00,48.5,48.0,30.34,NNE,27,0.0,0.0,98,0.00,CLR,,0.00,WeatherDisplay:10.37,2013-01-30 05:03:00,
2013-01-29 21:04:00,48.4,47.9,30.34,NNE,27,0.0,0.0,98,0.00,CLR,,0.00,WeatherDisplay:10.37,2013-01-30 05:04:00,
2013-01-29 21:09:00,48.4,47.9,30.34,North,357,0.0,0.0,98,0.00,CLR,,0.00,WeatherDisplay:10.37,2013-01-30 05:09:00,
2013-01-29 21:14:00,48.6,48.1,30.34,North,357,0.0,0.0,98,0.00,CLR,,0.00,WeatherDisplay:10.37,2013-01-30 05:14:00,
2013-01-29 21:19:00,48.3,47.8,30.34,North,356,1.2,2.3,98,0.00,CLR,,0.00,WeatherDisplay:10.37,2013-01-30 05:19:00,
2013-01-29 21:24:00,48.9,48.4,30.34,North,7,0.0,0.0,98,0.00,CLR,,0.00,WeatherDisplay:10.37,2013-01-30 05:24:00,
2013-01-29 21:29:00,49.0,48.5,30.34,SSE,148,1.6,3.5,98,0.00,CLR,,0.00,WeatherDisplay:10.37,2013-01-30 05:29:00,
2013-01-29 21:34:00,48.3,47.8,30.34,SSE,148,0.0,0.0,98,0.00,CLR,,0.00,WeatherDisplay:10.37,2013-01-30 05:34:00,
2013-01-29 21:39:00,48.2,47.7,30.34,SSE,148,0.0,0.0,98,0.00,CLR,,0.00,WeatherDisplay:10.37,2013-01-30 05:39:00,
2013-01-29 21:44:00,47.6,47.1,30.34,SSE,148,0.0,0.0,98,0.00,CLR,,0.00,WeatherDisplay:10.37,2013-01-30 05:44:00,
2013-01-29 21:49:00,48.1,47.6,30.34,SSE,148,0.0,0.0,98,0.00,CLR,,0.00,WeatherDisplay:10.37,2013-01-30 05:49:00,
2013-01-29 21:54:00,48.3,47.8,30.34,SSE,148,0.0,0.0,98,0.00,CLR,,0.00,WeatherDisplay:10.37,2013-01-30 05:54:00,
2013-01-29 21:59:00,47.8,47.2,30.34,SSE,148,0.0,0.0,98,0.00,CLR,,0.00,WeatherDisplay:10.37,2013-01-30 05:59:00,
2013-01-29 22:04:00,47.3,46.8,30.34,SSE,148,0.0,0.0,98,0.00,CLR,,0.00,WeatherDisplay:10.37,2013-01-30 06:04:00,
2013-01-29 22:09:00,46.9,46.4,30.34,SSE,148,0.0,0.0,98,0.00,CLR,,0.00,WeatherDisplay:10.37,2013-01-30 06:09:00,
2013-01-29 22:14:00,46.7,46.2,30.34,SSE,148,0.0,0.0,98,0.00,CLR,,0.00,WeatherDisplay:10.37,2013-01-30 06:14:00,
2013-01-29 22:19:00,46.7,46.1,30.34,SSE,148,0.0,0.0,98,0.00,CLR,,0.00,WeatherDisplay:10.37,2013-01-30 06:19:00,
2013-01-29 22:24:00,46.7,46.2,30.33,SSE,148,0.0,0.0,98,0.00,CLR,,0.00,WeatherDisplay:10.37,2013-01-30 06:24:00,
2013-01-29 22:29:00,47.1,46.6,30.33,SSE,148,0.0,0.0,98,0.00,CLR,,0.00,WeatherDisplay:10.37,2013-01-30 06:29:00,
2013-01-29 22:34:00,46.7,46.7,30.34,SSE,148,0.0,0.0,100,0.00,CLR,,0.00,WeatherDisplay:10.37,2013-01-30 06:34:00,
2013-01-29 22:39:00,46.5,46.5,30.34,SE,142,0.0,6.0,100,0.00,CLR,,0.00,WeatherDisplay:10.37,2013-01-30 06:39:00,
2013-01-29 22:44:00,47.1,47.1,30.34,SE,128,0.0,0.0,100,0.00,CLR,,0.00,WeatherDisplay:10.37,2013-01-30 06:44:00,
2013-01-29 22:49:00,46.5,46.5,30.34,ESE,119,0.0,1.0,100,0.00,CLR,,0.00,WeatherDisplay:10.37,2013-01-30 06:49:00,
2013-01-29 22:54:00,46.3,46.3,30.35,NW,318,0.0,0.0,100,0.00,CLR,,0.00,WeatherDisplay:10.37,2013-01-30 06:54:00,
2013-01-29 22:59:00,45.7,45.7,30.35,NW,305,0.0,0.0,100,0.00,CLR,,0.00,WeatherDisplay:10.37,2013-01-30 06:59:00,
2013-01-29 23:04:00,46.4,46.4,30.35,NW,305,0.0,0.0,100,0.00,CLR,,0.00,WeatherDisplay:10.37,2013-01-30 07:04:00,
2013-01-29 23:09:00,46.4,46.4,30.35,NW,305,0.0,0.0,100,0.00,CLR,,0.00,WeatherDisplay:10.37,2013-01-30 07:09:00,
2013-01-29 23:14:00,45.7,45.7,30.35,NW,305,0.0,0.0,100,0.00,CLR,,0.00,WeatherDisplay:10.37,2013-01-30 07:14:00,
2013-01-29 23:19:00,46.0,45.7,30.35,NW,305,0.0,0.0,99,0.00,CLR,,0.00,WeatherDisplay:10.37,2013-01-30 07:19:00,
2013-01-29 23:24:00,45.7,45.4,30.35,NW,305,0.0,0.0,99,0.00,CLR,,0.00,WeatherDisplay:10.37,2013-01-30 07:24:00,
2013-01-29 23:30:00,45.1,44.8,30.35,NW,305,0.0,0.0,99,0.00,CLR,,0.00,WeatherDisplay:10.37,2013-01-30 07:30:00,
2013-01-29 23:34:00,45.3,45.0,30.35,NW,305,0.0,0.0,99,0.00,CLR,,0.00,WeatherDisplay:10.37,2013-01-30 07:34:00,
2013-01-29 23:39:00,45.5,45.2,30.35,NW,305,0.0,0.0,99,0.00,CLR,,0.00,WeatherDisplay:10.37,2013-01-30 07:39:00,
2013-01-29 23:44:00,45.0,44.7,30.35,NW,305,0.0,0.0,99,0.00,CLR,,0.00,WeatherDisplay:10.37,2013-01-30 07:44:00,
2013-01-29 23:49:00,45.0,44.7,30.35,NW,305,0.0,0.0,99,0.00,CLR,,0.00,WeatherDisplay:10.37,2013-01-30 07:49:00,
2013-01-29 23:54:00,45.2,44.9,30.35,NW,305,0.0,0.0,99,0.00,CLR,,0.00,WeatherDisplay:10.37,2013-01-30 07:54:00,
2013-01-29 23:59:00,44.8,44.5,30.36,NW,305,0.0,0.0,99,0.00,CLR,,0.00,WeatherDisplay:10.37,2013-01-30 07:59:00,